Decoded Metar for KAND (ANDERSEN in SC, USA) (IATA:AND) | Meteo·Mobile Aviation Weather
aviador You're here:

KAND Decoded Metar

ANDERSEN in SC, USA
Report Time2019-01-19 00:56:00
UTC Time2019-01-19 02:01:04
Flight Rules vfr VFR
WindCalm
Visibility9999 m
Phenomena:N/A
Clouds:Few 037 Hf
Scattered 050 Hf
Expected CloudBase > 800 ft AGL from Temp-Dew spread
CeilingNone
Temp11°C (ISA -2)
Dew Point09°C (88% RH)
AAT10.8°C
QNH1019 hPa
Density Alt449 ft
Elevation784 ft
Report Wrong Elevation
Raw Report
METAR KAND 190056Z AUTO 00000KT 10SM FEW037 SCT050 11/09 A3009 RMK
AO2 SLP188 T01060089=

Extra information for KAND:More info

Metar Taf Metar & Taf Last 4 Metars F.Rules Stats Wind Profile Meteogram Temp Stats Airport Information Weather charts Add Link Nearby VenuesMetar ALERT Operation Metar Decoded Social comments

AIRNAV info for KAND